Main page
METAR-TAF:

METAR-TAF

Airports :

Derry, Northern Ireland

City of Derry Airport

latitude: 55-03N, longitude: 007-09W, elevation: 9 m

Current weather observation

The report was made 5 hours and 55 minutes ago, at 20:50 UTC
Wind 7 kt from the West
Temperature 17°C
Humidity 82%
Pressure 1018 hPa
Visibility 10 km or more
Few clouds at a height of 1200 ft

METAR: EGAE 232050Z 28007KT 9999 FEW012 17/14 Q1018

Time: 03:45 (02:45 UTC)

Forecast

The report was made 9 hours and 47 minutes ago, at 16:58 UTC
Forecast valid from 23 at 18 UTC to 23 at 20 UTC
Wind 8 kt from the North
Visibility 10 km or more
Few clouds at a height of 3500 ft

TAF: EGAE 231658Z 2318/2320 35008KT 9999 FEW035

Weather observations and forecasts of more than 4000 airports (METAR and TAF reports).

The available stations are represented by yellow and red dots on the map.

Hover mouse over dot to see the name of the station.

Then click to see weather observations and forecasts.

To change the map : click on the green buttons with a black cross to zoom in, on the green button with a dash to zoom out, or on the green arrows for adjacent maps.


METAR-TAF: